DLH595 DNPO-DNAA
Flight info
| Callsign | DLH595 |
|---|---|
| Flight time | 0h 53m |
| Altitude | 23000 |
| Route | ETVUN H206 APVOT UH206 ENG UJ707 ULSIX J707 AMTIR UJ707 NANUV NANUV1N |
| Aircraft | A343/H-SDE2E3FGHIJ3J5M1P2RWXYZ/LB1D1 |
Departure
| Time | 2026-04-27 17:50 |
|---|---|
| Airport | Port Harcourt International Airport (DNPO) |
Arrival
| Time | 2026-04-27 18:44 |
|---|---|
| Airport | Nnamdi Azikiwe International Airport (DNAA) |
| Time | Latitude | Longitude | Altitude | Speed | Heading |
|---|---|---|---|---|---|
| 2026-04-27 17:17 | 5.00891 | 6.94940 | 80 ft | 0 kts | 210° |
| 2026-04-27 17:44 | 5.00880 | 6.94934 | 80 ft | 5 kts | 209° |
| 2026-04-27 17:44 | 5.00837 | 6.94909 | 76 ft | 8 kts | 210° |
| 2026-04-27 17:45 | 5.00815 | 6.94862 | 76 ft | 8 kts | 269° |
| 2026-04-27 17:45 | 5.00841 | 6.94826 | 77 ft | 5 kts | 336° |
| 2026-04-27 17:45 | 5.00887 | 6.94833 | 77 ft | 9 kts | 22° |
| 2026-04-27 17:45 | 5.00974 | 6.94877 | 79 ft | 20 kts | 28° |
| 2026-04-27 17:46 | 5.01108 | 6.94950 | 79 ft | 23 kts | 28° |
| 2026-04-27 17:46 | 5.01252 | 6.95028 | 81 ft | 24 kts | 27° |
| 2026-04-27 17:46 | 5.01403 | 6.95106 | 80 ft | 25 kts | 28° |
| 2026-04-27 17:46 | 5.01557 | 6.95188 | 79 ft | 25 kts | 27° |
| 2026-04-27 17:47 | 5.01713 | 6.95270 | 81 ft | 26 kts | 27° |
| 2026-04-27 17:47 | 5.01821 | 6.95328 | 80 ft | 26 kts | 28° |
| 2026-04-27 17:47 | 5.02038 | 6.95445 | 80 ft | 27 kts | 29° |
| 2026-04-27 17:47 | 5.02205 | 6.95536 | 81 ft | 28 kts | 27° |
| 2026-04-27 17:48 | 5.02377 | 6.95626 | 80 ft | 28 kts | 28° |
| 2026-04-27 17:48 | 5.02532 | 6.95712 | 81 ft | 20 kts | 28° |
| 2026-04-27 17:48 | 5.02621 | 6.95745 | 80 ft | 12 kts | 1° |
| 2026-04-27 17:48 | 5.02675 | 6.95691 | 81 ft | 12 kts | 296° |
| 2026-04-27 17:49 | 5.02713 | 6.95612 | 83 ft | 10 kts | 292° |
| 2026-04-27 17:49 | 5.02704 | 6.95575 | 82 ft | 6 kts | 232° |
| 2026-04-27 17:49 | 5.02656 | 6.95548 | 80 ft | 16 kts | 208° |
| 2026-04-27 17:49 | 5.02364 | 6.95393 | 81 ft | 79 kts | 207° |
| 2026-04-27 17:50 | 5.01703 | 6.95041 | 80 ft | 133 kts | 208° |
| 2026-04-27 17:50 | 4.99721 | 6.93988 | 833 ft | 170 kts | 207° |
| 2026-04-27 17:50 | 4.98653 | 6.93424 | 1404 ft | 180 kts | 207° |
| 2026-04-27 17:51 | 4.97497 | 6.92803 | 1861 ft | 200 kts | 208° |
| 2026-04-27 17:51 | 4.96236 | 6.92121 | 2483 ft | 211 kts | 210° |
| 2026-04-27 17:51 | 4.94923 | 6.91413 | 3333 ft | 218 kts | 209° |
| 2026-04-27 17:51 | 4.93556 | 6.90678 | 4128 ft | 228 kts | 208° |
| 2026-04-27 17:52 | 4.92132 | 6.89913 | 4952 ft | 235 kts | 206° |
| 2026-04-27 17:52 | 4.90673 | 6.89133 | 5717 ft | 239 kts | 206° |
| 2026-04-27 17:52 | 4.89184 | 6.88335 | 6194 ft | 245 kts | 205° |
| 2026-04-27 17:52 | 4.88180 | 6.87812 | 6328 ft | 245 kts | 202° |
| 2026-04-27 17:53 | 4.86015 | 6.87470 | 6367 ft | 236 kts | 163° |
| 2026-04-27 17:53 | 4.84613 | 6.88232 | 6367 ft | 228 kts | 131° |
| 2026-04-27 17:53 | 4.83823 | 6.89575 | 6379 ft | 225 kts | 108° |
| 2026-04-27 17:53 | 4.83365 | 6.91085 | 6376 ft | 227 kts | 104° |
| 2026-04-27 17:54 | 4.82942 | 6.92617 | 6372 ft | 228 kts | 104° |
| 2026-04-27 17:54 | 4.82520 | 6.94124 | 6373 ft | 227 kts | 105° |
| 2026-04-27 17:54 | 4.82083 | 6.95649 | 6374 ft | 227 kts | 105° |
| 2026-04-27 17:54 | 4.81642 | 6.97175 | 6371 ft | 228 kts | 105° |
| 2026-04-27 17:55 | 4.81226 | 6.98704 | 6455 ft | 226 kts | 100° |
| 2026-04-27 17:55 | 4.81263 | 7.00280 | 6890 ft | 230 kts | 74° |
| 2026-04-27 17:55 | 4.82115 | 7.01684 | 7502 ft | 248 kts | 46° |
| 2026-04-27 17:55 | 4.83527 | 7.02758 | 8095 ft | 266 kts | 37° |
| 2026-04-27 17:56 | 4.85113 | 7.03776 | 8891 ft | 273 kts | 36° |
| 2026-04-27 17:56 | 4.86730 | 7.04809 | 9764 ft | 277 kts | 37° |
| 2026-04-27 17:56 | 4.88379 | 7.05878 | 10413 ft | 290 kts | 37° |
| 2026-04-27 17:56 | 4.90111 | 7.07016 | 10730 ft | 311 kts | 37° |
| 2026-04-27 17:57 | 4.91976 | 7.08248 | 11148 ft | 327 kts | 36° |
| 2026-04-27 17:57 | 4.93899 | 7.09517 | 11773 ft | 334 kts | 36° |
| 2026-04-27 17:57 | 4.95864 | 7.10816 | 12432 ft | 341 kts | 36° |
| 2026-04-27 17:57 | 4.97866 | 7.12141 | 13118 ft | 346 kts | 36° |
| 2026-04-27 17:58 | 4.99894 | 7.13483 | 13782 ft | 352 kts | 36° |
| 2026-04-27 17:58 | 5.01950 | 7.14846 | 14386 ft | 357 kts | 36° |
| 2026-04-27 17:58 | 5.04015 | 7.16215 | 14986 ft | 362 kts | 36° |
| 2026-04-27 17:58 | 5.06126 | 7.17615 | 15602 ft | 367 kts | 35° |
| 2026-04-27 17:59 | 5.08271 | 7.19037 | 16204 ft | 371 kts | 35° |
| 2026-04-27 17:59 | 5.10435 | 7.20487 | 16844 ft | 376 kts | 36° |
| 2026-04-27 17:59 | 5.12606 | 7.22007 | 17475 ft | 381 kts | 37° |
| 2026-04-27 17:59 | 5.14788 | 7.23548 | 18105 ft | 386 kts | 36° |
| 2026-04-27 18:00 | 5.16999 | 7.25104 | 18655 ft | 390 kts | 36° |
| 2026-04-27 18:00 | 5.19203 | 7.26653 | 19217 ft | 393 kts | 36° |
| 2026-04-27 18:00 | 5.21455 | 7.28232 | 19812 ft | 396 kts | 36° |
| 2026-04-27 18:00 | 5.23726 | 7.29823 | 20392 ft | 398 kts | 36° |
| 2026-04-27 18:01 | 5.26009 | 7.31423 | 20969 ft | 401 kts | 36° |
| 2026-04-27 18:01 | 5.28311 | 7.33035 | 21521 ft | 404 kts | 36° |
| 2026-04-27 18:01 | 5.30607 | 7.34643 | 22090 ft | 407 kts | 36° |
| 2026-04-27 18:01 | 5.32946 | 7.36281 | 22626 ft | 410 kts | 36° |
| 2026-04-27 18:02 | 5.35300 | 7.37904 | 22850 ft | 409 kts | 33° |
| 2026-04-27 18:02 | 5.37797 | 7.39134 | 22872 ft | 401 kts | 19° |
| 2026-04-27 18:02 | 5.40528 | 7.39620 | 22883 ft | 399 kts | 2° |
| 2026-04-27 18:02 | 5.43289 | 7.39314 | 22878 ft | 400 kts | 348° |
| 2026-04-27 18:03 | 5.45997 | 7.38638 | 22874 ft | 402 kts | 346° |
| 2026-04-27 18:03 | 5.48711 | 7.37906 | 22875 ft | 402 kts | 346° |
| 2026-04-27 18:03 | 5.51416 | 7.37180 | 22876 ft | 402 kts | 346° |
| 2026-04-27 18:03 | 5.54124 | 7.36459 | 22875 ft | 403 kts | 346° |
| 2026-04-27 18:04 | 5.56807 | 7.35749 | 22876 ft | 403 kts | 346° |
| 2026-04-27 18:04 | 5.59523 | 7.35033 | 22876 ft | 403 kts | 346° |
| 2026-04-27 18:04 | 5.62246 | 7.34316 | 22876 ft | 403 kts | 346° |
| 2026-04-27 18:04 | 5.64925 | 7.33612 | 22877 ft | 403 kts | 346° |
| 2026-04-27 18:05 | 5.67645 | 7.32898 | 22874 ft | 402 kts | 346° |
| 2026-04-27 18:05 | 5.70360 | 7.32184 | 22875 ft | 402 kts | 346° |
| 2026-04-27 18:05 | 5.73076 | 7.31471 | 22875 ft | 402 kts | 346° |
| 2026-04-27 18:05 | 5.75793 | 7.30758 | 22878 ft | 402 kts | 347° |
| 2026-04-27 18:06 | 5.78505 | 7.30260 | 22875 ft | 401 kts | 357° |
| 2026-04-27 18:06 | 5.81273 | 7.30449 | 22874 ft | 397 kts | 14° |
| 2026-04-27 18:06 | 5.83910 | 7.31285 | 22878 ft | 396 kts | 22° |
| 2026-04-27 18:06 | 5.86457 | 7.32338 | 22876 ft | 396 kts | 25° |
| 2026-04-27 18:07 | 5.88969 | 7.33493 | 22872 ft | 397 kts | 26° |
| 2026-04-27 18:07 | 5.91465 | 7.34683 | 22877 ft | 397 kts | 26° |
| 2026-04-27 18:07 | 5.93961 | 7.35872 | 22878 ft | 397 kts | 26° |
| 2026-04-27 18:07 | 5.96463 | 7.37049 | 22877 ft | 397 kts | 26° |
| 2026-04-27 18:08 | 5.98941 | 7.38196 | 22879 ft | 397 kts | 25° |
| 2026-04-27 18:08 | 6.01462 | 7.39348 | 22877 ft | 397 kts | 25° |
| 2026-04-27 18:08 | 6.03979 | 7.40491 | 22876 ft | 397 kts | 25° |
| 2026-04-27 18:08 | 6.06509 | 7.41634 | 22877 ft | 398 kts | 25° |
| 2026-04-27 18:09 | 6.08192 | 7.42386 | 22870 ft | 398 kts | 25° |
| 2026-04-27 18:09 | 6.10732 | 7.43513 | 22876 ft | 399 kts | 25° |
| 2026-04-27 18:09 | 6.13273 | 7.44635 | 22874 ft | 399 kts | 25° |
| 2026-04-27 18:09 | 6.16641 | 7.46125 | 22875 ft | 399 kts | 25° |
| 2026-04-27 18:10 | 6.19181 | 7.47250 | 22871 ft | 399 kts | 25° |
| 2026-04-27 18:10 | 6.20896 | 7.48012 | 22874 ft | 399 kts | 25° |
| 2026-04-27 18:10 | 6.23407 | 7.49127 | 22871 ft | 399 kts | 25° |
| 2026-04-27 18:10 | 6.25946 | 7.50257 | 22873 ft | 399 kts | 25° |
| 2026-04-27 18:11 | 6.28487 | 7.51388 | 22869 ft | 399 kts | 25° |
| 2026-04-27 18:11 | 6.31031 | 7.52521 | 22871 ft | 399 kts | 25° |
| 2026-04-27 18:11 | 6.33566 | 7.53650 | 22876 ft | 399 kts | 25° |
| 2026-04-27 18:11 | 6.36106 | 7.54781 | 22877 ft | 399 kts | 25° |
| 2026-04-27 18:12 | 6.38648 | 7.55913 | 22875 ft | 399 kts | 25° |
| 2026-04-27 18:12 | 6.41190 | 7.57045 | 22878 ft | 399 kts | 25° |
| 2026-04-27 18:12 | 6.43698 | 7.58162 | 22882 ft | 399 kts | 25° |
| 2026-04-27 18:12 | 6.46261 | 7.59250 | 22872 ft | 400 kts | 20° |
| 2026-04-27 18:13 | 6.48974 | 7.59896 | 22875 ft | 402 kts | 7° |
| 2026-04-27 18:13 | 6.51766 | 7.60128 | 22876 ft | 402 kts | 4° |
| 2026-04-27 18:13 | 6.54564 | 7.60206 | 22874 ft | 403 kts | 2° |
| 2026-04-27 18:13 | 6.57373 | 7.60201 | 22873 ft | 403 kts | 1° |
| 2026-04-27 18:14 | 6.60180 | 7.60161 | 22871 ft | 403 kts | 0° |
| 2026-04-27 18:14 | 6.62993 | 7.60115 | 22872 ft | 403 kts | 0° |
| 2026-04-27 18:14 | 6.65763 | 7.60077 | 22868 ft | 403 kts | 1° |
| 2026-04-27 18:14 | 6.68578 | 7.60048 | 22876 ft | 403 kts | 1° |
| 2026-04-27 18:15 | 6.71386 | 7.60029 | 22871 ft | 403 kts | 1° |
| 2026-04-27 18:15 | 6.74194 | 7.60014 | 22876 ft | 403 kts | 1° |
| 2026-04-27 18:15 | 6.77002 | 7.60003 | 22869 ft | 403 kts | 1° |
| 2026-04-27 18:15 | 6.79813 | 7.59993 | 22865 ft | 403 kts | 1° |
| 2026-04-27 18:16 | 6.82591 | 7.59983 | 22879 ft | 403 kts | 1° |
| 2026-04-27 18:16 | 6.85397 | 7.59973 | 22879 ft | 403 kts | 1° |
| 2026-04-27 18:16 | 6.88207 | 7.59962 | 22873 ft | 403 kts | 1° |
| 2026-04-27 18:16 | 6.91007 | 7.59951 | 22875 ft | 403 kts | 1° |
| 2026-04-27 18:17 | 6.93813 | 7.59940 | 22879 ft | 403 kts | 1° |
| 2026-04-27 18:17 | 6.96620 | 7.59929 | 22869 ft | 403 kts | 1° |
| 2026-04-27 18:17 | 6.99386 | 7.59918 | 22881 ft | 403 kts | 1° |
| 2026-04-27 18:17 | 7.02195 | 7.59909 | 22880 ft | 403 kts | 1° |
| 2026-04-27 18:18 | 7.04996 | 7.59896 | 22881 ft | 403 kts | 1° |
| 2026-04-27 18:18 | 7.07799 | 7.59881 | 22876 ft | 403 kts | 1° |
| 2026-04-27 18:18 | 7.10604 | 7.59866 | 22873 ft | 403 kts | 1° |
| 2026-04-27 18:18 | 7.13411 | 7.59850 | 22879 ft | 403 kts | 1° |
| 2026-04-27 18:19 | 7.16218 | 7.59835 | 22876 ft | 403 kts | 1° |
| 2026-04-27 18:19 | 7.19020 | 7.59821 | 22872 ft | 403 kts | 1° |
| 2026-04-27 18:19 | 7.21824 | 7.59807 | 22873 ft | 403 kts | 1° |
| 2026-04-27 18:19 | 7.24592 | 7.59793 | 22877 ft | 403 kts | 1° |
| 2026-04-27 18:20 | 7.27404 | 7.59780 | 22871 ft | 403 kts | 1° |
| 2026-04-27 18:20 | 7.30211 | 7.59766 | 22870 ft | 403 kts | 1° |
| 2026-04-27 18:20 | 7.33010 | 7.59752 | 22874 ft | 403 kts | 1° |
| 2026-04-27 18:20 | 7.35784 | 7.59738 | 22870 ft | 402 kts | 1° |
| 2026-04-27 18:21 | 7.38589 | 7.59724 | 22871 ft | 402 kts | 1° |
| 2026-04-27 18:21 | 7.41399 | 7.59711 | 22877 ft | 402 kts | 1° |
| 2026-04-27 18:21 | 7.44201 | 7.59697 | 22870 ft | 402 kts | 1° |
| 2026-04-27 18:21 | 7.47011 | 7.59683 | 22871 ft | 403 kts | 1° |
| 2026-04-27 18:22 | 7.49784 | 7.59669 | 22877 ft | 403 kts | 1° |
| 2026-04-27 18:22 | 7.52580 | 7.59654 | 22869 ft | 403 kts | 1° |
| 2026-04-27 18:22 | 7.55390 | 7.59644 | 22866 ft | 403 kts | 1° |
| 2026-04-27 18:22 | 7.58195 | 7.59637 | 22867 ft | 403 kts | 1° |
| 2026-04-27 18:23 | 7.60999 | 7.59631 | 22868 ft | 403 kts | 1° |
| 2026-04-27 18:23 | 7.63805 | 7.59625 | 22868 ft | 403 kts | 1° |
| 2026-04-27 18:23 | 7.66609 | 7.59619 | 22873 ft | 403 kts | 1° |
| 2026-04-27 18:23 | 7.69420 | 7.59612 | 22866 ft | 403 kts | 1° |
| 2026-04-27 18:24 | 7.72224 | 7.59604 | 22867 ft | 403 kts | 1° |
| 2026-04-27 18:24 | 7.75023 | 7.59596 | 22863 ft | 403 kts | 1° |
| 2026-04-27 18:24 | 7.77795 | 7.59587 | 22866 ft | 403 kts | 1° |
| 2026-04-27 18:24 | 7.80607 | 7.59579 | 22866 ft | 403 kts | 1° |
| 2026-04-27 18:25 | 7.83409 | 7.59570 | 22853 ft | 403 kts | 1° |
| 2026-04-27 18:25 | 7.86222 | 7.59562 | 22858 ft | 403 kts | 1° |
| 2026-04-27 18:25 | 7.89024 | 7.59554 | 22858 ft | 403 kts | 1° |
| 2026-04-27 18:25 | 7.91834 | 7.59546 | 22850 ft | 403 kts | 1° |
| 2026-04-27 18:26 | 7.94640 | 7.59537 | 22860 ft | 402 kts | 1° |
| 2026-04-27 18:26 | 7.97412 | 7.59528 | 22788 ft | 403 kts | 1° |
| 2026-04-27 18:26 | 8.00261 | 7.59521 | 22539 ft | 414 kts | 1° |
| 2026-04-27 18:26 | 8.03155 | 7.59514 | 22286 ft | 415 kts | 1° |
| 2026-04-27 18:27 | 8.06045 | 7.59505 | 22032 ft | 414 kts | 1° |
| 2026-04-27 18:27 | 8.08889 | 7.59494 | 21781 ft | 412 kts | 1° |
| 2026-04-27 18:27 | 8.11758 | 7.59476 | 21542 ft | 410 kts | 1° |
| 2026-04-27 18:27 | 8.14616 | 7.59458 | 21293 ft | 409 kts | 1° |
| 2026-04-27 18:28 | 8.17452 | 7.59440 | 21002 ft | 403 kts | 1° |
| 2026-04-27 18:28 | 8.20213 | 7.59423 | 20573 ft | 400 kts | 1° |
| 2026-04-27 18:28 | 8.22990 | 7.59407 | 20095 ft | 398 kts | 1° |
| 2026-04-27 18:28 | 8.25755 | 7.59278 | 19612 ft | 398 kts | 353° |
| 2026-04-27 18:29 | 8.28453 | 7.58644 | 19125 ft | 398 kts | 345° |
| 2026-04-27 18:29 | 8.31104 | 7.57836 | 18649 ft | 396 kts | 344° |
| 2026-04-27 18:29 | 8.33734 | 7.57015 | 18166 ft | 395 kts | 344° |
| 2026-04-27 18:29 | 8.36367 | 7.56196 | 17640 ft | 393 kts | 344° |
| 2026-04-27 18:30 | 8.38976 | 7.55388 | 17132 ft | 390 kts | 344° |
| 2026-04-27 18:30 | 8.41564 | 7.54589 | 16651 ft | 388 kts | 345° |
| 2026-04-27 18:30 | 8.44112 | 7.53804 | 16166 ft | 386 kts | 345° |
| 2026-04-27 18:30 | 8.46674 | 7.53016 | 15704 ft | 383 kts | 345° |
| 2026-04-27 18:31 | 8.49223 | 7.52231 | 15213 ft | 382 kts | 345° |
| 2026-04-27 18:31 | 8.51771 | 7.51448 | 14724 ft | 380 kts | 346° |
| 2026-04-27 18:31 | 8.54269 | 7.50679 | 14253 ft | 379 kts | 346° |
| 2026-04-27 18:31 | 8.56792 | 7.49904 | 13783 ft | 378 kts | 346° |
| 2026-04-27 18:32 | 8.59303 | 7.49132 | 13274 ft | 377 kts | 346° |
| 2026-04-27 18:32 | 8.61801 | 7.48364 | 12783 ft | 374 kts | 346° |
| 2026-04-27 18:32 | 8.64289 | 7.47598 | 12316 ft | 372 kts | 347° |
| 2026-04-27 18:32 | 8.66770 | 7.46834 | 11847 ft | 369 kts | 347° |
| 2026-04-27 18:33 | 8.69184 | 7.46092 | 11385 ft | 366 kts | 347° |
| 2026-04-27 18:33 | 8.71617 | 7.45343 | 10913 ft | 364 kts | 347° |
| 2026-04-27 18:33 | 8.74042 | 7.44597 | 10563 ft | 359 kts | 347° |
| 2026-04-27 18:33 | 8.76383 | 7.43873 | 10420 ft | 345 kts | 347° |
| 2026-04-27 18:34 | 8.78640 | 7.43176 | 10311 ft | 333 kts | 348° |
| 2026-04-27 18:34 | 8.80823 | 7.42502 | 10167 ft | 323 kts | 348° |
| 2026-04-27 18:34 | 8.82924 | 7.41855 | 10039 ft | 314 kts | 348° |
| 2026-04-27 18:34 | 8.85011 | 7.41212 | 9800 ft | 311 kts | 348° |
| 2026-04-27 18:35 | 8.87064 | 7.40581 | 9618 ft | 305 kts | 348° |
| 2026-04-27 18:35 | 8.89091 | 7.39959 | 9296 ft | 303 kts | 348° |
| 2026-04-27 18:35 | 8.91077 | 7.39349 | 8992 ft | 300 kts | 348° |
| 2026-04-27 18:35 | 8.93064 | 7.38799 | 8404 ft | 291 kts | 354° |
| 2026-04-27 18:36 | 8.95078 | 7.38644 | 7761 ft | 288 kts | 3° |
| 2026-04-27 18:36 | 8.97081 | 7.38637 | 7362 ft | 286 kts | 4° |
| 2026-04-27 18:36 | 8.99063 | 7.38643 | 7024 ft | 283 kts | 3° |
| 2026-04-27 18:36 | 9.00998 | 7.38647 | 6690 ft | 281 kts | 2° |
| 2026-04-27 18:37 | 9.02943 | 7.38751 | 6479 ft | 275 kts | 13° |
| 2026-04-27 18:37 | 9.04676 | 7.39439 | 6348 ft | 262 kts | 33° |
| 2026-04-27 18:37 | 9.06168 | 7.40438 | 6218 ft | 253 kts | 37° |
| 2026-04-27 18:37 | 9.07566 | 7.41439 | 6092 ft | 243 kts | 37° |
| 2026-04-27 18:38 | 9.08934 | 7.42421 | 5643 ft | 240 kts | 37° |
| 2026-04-27 18:38 | 9.10348 | 7.43354 | 5226 ft | 245 kts | 28° |
| 2026-04-27 18:38 | 9.11980 | 7.43786 | 4995 ft | 245 kts | 1° |
| 2026-04-27 18:38 | 9.13613 | 7.43374 | 4893 ft | 242 kts | 332° |
| 2026-04-27 18:39 | 9.14864 | 7.42266 | 4704 ft | 239 kts | 309° |
| 2026-04-27 18:39 | 9.15844 | 7.40908 | 4443 ft | 238 kts | 304° |
| 2026-04-27 18:39 | 9.16555 | 7.39454 | 4316 ft | 232 kts | 281° |
| 2026-04-27 18:39 | 9.16371 | 7.37885 | 4089 ft | 226 kts | 242° |
| 2026-04-27 18:40 | 9.15419 | 7.36653 | 3876 ft | 222 kts | 217° |
| 2026-04-27 18:40 | 9.14144 | 7.35817 | 3758 ft | 214 kts | 210° |
| 2026-04-27 18:40 | 9.12936 | 7.35026 | 3676 ft | 200 kts | 214° |
| 2026-04-27 18:40 | 9.11822 | 7.34205 | 3411 ft | 195 kts | 214° |
| 2026-04-27 18:41 | 9.10718 | 7.33422 | 3149 ft | 193 kts | 214° |
| 2026-04-27 18:41 | 9.09629 | 7.32656 | 2896 ft | 188 kts | 214° |
| 2026-04-27 18:41 | 9.08581 | 7.31914 | 2663 ft | 178 kts | 215° |
| 2026-04-27 18:41 | 9.07615 | 7.31229 | 2446 ft | 165 kts | 215° |
| 2026-04-27 18:42 | 9.06714 | 7.30591 | 2258 ft | 152 kts | 215° |
| 2026-04-27 18:42 | 9.06143 | 7.30187 | 2107 ft | 145 kts | 215° |
| 2026-04-27 18:42 | 9.05088 | 7.29443 | 1841 ft | 136 kts | 215° |
| 2026-04-27 18:42 | 9.04313 | 7.28888 | 1700 ft | 138 kts | 216° |
| 2026-04-27 18:43 | 9.03514 | 7.28314 | 1552 ft | 143 kts | 215° |
| 2026-04-27 18:43 | 9.02692 | 7.27740 | 1373 ft | 145 kts | 214° |
| 2026-04-27 18:43 | 9.01878 | 7.27162 | 1170 ft | 138 kts | 215° |
| 2026-04-27 18:43 | 9.01173 | 7.26665 | 1143 ft | 101 kts | 214° |
| 2026-04-27 18:44 | 9.00730 | 7.26354 | 1137 ft | 60 kts | 214° |
| 2026-04-27 18:44 | 9.00445 | 7.26155 | 1135 ft | 39 kts | 215° |
| 2026-04-27 18:44 | 9.00279 | 7.26044 | 1118 ft | 25 kts | 204° |
| 2026-04-27 18:44 | 9.00133 | 7.26032 | 1116 ft | 9 kts | 160° |
| 2026-04-27 18:45 | 9.00099 | 7.26083 | 1117 ft | 9 kts | 96° |
| 2026-04-27 18:45 | 9.00131 | 7.26133 | 1116 ft | 9 kts | 36° |
| 2026-04-27 18:45 | 9.00187 | 7.26174 | 1118 ft | 12 kts | 34° |
| 2026-04-27 18:45 | 9.00266 | 7.26226 | 1118 ft | 14 kts | 34° |
| 2026-04-27 18:46 | 9.00347 | 7.26285 | 1119 ft | 15 kts | 36° |
| 2026-04-27 18:46 | 9.00441 | 7.26354 | 1134 ft | 18 kts | 36° |
| 2026-04-27 18:46 | 9.00543 | 7.26429 | 1135 ft | 18 kts | 36° |
| 2026-04-27 18:46 | 9.00598 | 7.26478 | 1135 ft | 5 kts | 56° |
| 2026-04-27 18:47 | 9.00600 | 7.26512 | 1134 ft | 5 kts | 105° |
| 2026-04-27 18:47 | 9.00565 | 7.26561 | 1134 ft | 13 kts | 133° |
| 2026-04-27 18:47 | 9.00487 | 7.26624 | 1136 ft | 15 kts | 147° |
| 2026-04-27 18:47 | 9.00395 | 7.26679 | 1133 ft | 15 kts | 149° |
| 2026-04-27 18:48 | 9.00334 | 7.26748 | 1134 ft | 10 kts | 102° |
| 2026-04-27 18:48 | 9.00356 | 7.26797 | 1135 ft | 8 kts | 61° |
| 2026-04-27 18:48 | 9.00369 | 7.26853 | 1136 ft | 8 kts | 96° |
| 2026-04-27 18:48 | 9.00360 | 7.26896 | 1134 ft | 3 kts | 68° |
| 2026-04-27 18:49 | 9.00377 | 7.26911 | 1137 ft | 4 kts | 38° |
| 2026-04-27 18:49 | 9.00404 | 7.26925 | 1136 ft | 3 kts | 24° |
| 2026-04-27 18:49 | 9.00412 | 7.26928 | 1136 ft | 0 kts | 23° |